• Join FlightAware (Why Join?)
  • Login
  • US Flag 
11:19PM EDT


 

Airport Tracker/Info


-or-


 

Live Flight TrackerFlight Track Log ✈ RPA3253 ✈ 20-Jul-2013 ✈ KCLT - KMSY

Flight Track Log - Related Links

Times and Time Zones

All times are in EDT time to prevent confusion due to time zone crossing. See the RPA3253 flight status page for this flight to view local times or setup timezone preferences in your user account.

Time Position Orientation Groundspeed Altitude Reporting Facility
EDT Latitude Longitude Course Direction KTS MPH feet Rate Location/Type
10:30PM 35.1869 -80.9511 182° South 162 186 1,600  Level Atlanta Center
10:31PM 35.1578 -80.9522 182° South 161 185 2,600 1,440 Climbing Atlanta Center
10:32PM 35.1106 -80.9819 207° Southwest 257 296 3,800 2,100 Climbing Atlanta Center
10:33PM 35.1044 -81.0658 265° West 284 327 6,600 2,760 Climbing Atlanta Center
10:34PM 35.0961 -81.1625 264° West 293 337 9,400 2,100 Climbing Atlanta Center
10:35PM 35.0881 -81.2669 265° West 299 344 10,900 1,800 Climbing Atlanta Center
10:36PM 35.0594 -81.3822 253° West 338 389 13,100 2,100 Climbing Atlanta Center
10:37PM 35.0264 -81.4947 250° West 349 402 15,200 2,040 Climbing Atlanta Center
10:38PM 34.9892 -81.6150 249° West 362 417 17,200 1,560 Climbing Atlanta Center
10:39PM 34.9578 -81.7200 250° West 367 422 18,400 1,440 Climbing Atlanta Center
10:40PM 34.9161 -81.8400 247° West 384 442 20,100 1,620 Climbing Atlanta Center
10:41PM 34.8431 -81.9583 233° Southwest 392 451 21,700 1,500 Climbing Atlanta Center
10:42PM 34.7822 -82.0686 236° Southwest 398 458 23,100 1,320 Climbing Atlanta Center
10:43PM 34.7172 -82.1839 236° Southwest 409 471 24,400 1,560 Climbing Atlanta Center
10:44PM 34.6544 -82.2989 236° Southwest 409 471 26,300 1,860 Climbing Atlanta Center
10:45PM 34.5911 -82.4086 235° Southwest 404 465 28,200 1,860 Climbing Atlanta Center
10:46PM 34.5319 -82.5108 235° Southwest 392 451 30,100 1,500 Climbing Atlanta Center
10:47PM 34.4767 -82.5975 232° Southwest 374 430 31,200 840 Climbing Atlanta Center
10:48PM 34.4172 -82.6992 235° Southwest 369 425 31,800 360 Climbing Atlanta Center
10:49PM 34.3558 -82.8058 235° Southwest 380 437 32,000 60 Climbing Atlanta Center
10:50PM 34.2900 -82.9200 235° Southwest 407 468 32,000  Level Atlanta Center
10:51PM 34.2222 -83.0389 235° Southwest 429 494 32,000  Level Atlanta Center
10:52PM 34.1500 -83.1628 235° Southwest 452 520 32,000  Level Atlanta Center
10:53PM 34.0736 -83.2914 234° Southwest 469 540 32,000  Level Atlanta Center
10:54PM 33.9911 -83.4350 235° Southwest 475 547 32,000  Level Atlanta Center
10:55PM 33.9144 -83.5608 234° Southwest 475 547 32,000  Level Atlanta Center
10:56PM 33.8397 -83.6911 235° Southwest 475 547 32,000  Level Atlanta Center
10:57PM 33.7628 -83.8189 234° Southwest 475 547 32,000  Level Atlanta Center
10:58PM 33.6856 -83.9464 234° Southwest 470 541 32,000  Level Atlanta Center
10:59PM 33.6128 -84.0711 235° Southwest 470 541 32,000  Level Atlanta Center
11:00PM 33.5353 -84.1983 234° Southwest 470 541 32,000  Level Atlanta Center
11:01PM 33.4683 -84.3103 234° Southwest 475 547 32,000  Level Atlanta Center
11:02PM 33.3928 -84.4369 234° Southwest 475 547 32,000  Level Atlanta Center
11:03PM 33.3172 -84.5633 234° Southwest 475 547 32,000  Level Atlanta Center
11:04PM 33.2394 -84.6894 234° Southwest 475 547 32,000  Level Atlanta Center
11:05PM 33.1572 -84.8278 235° Southwest 475 547 32,000  Level Atlanta Center
11:06PM 33.0811 -84.9536 234° Southwest 469 540 32,000  Level Atlanta Center
11:07PM 33.0072 -85.0742 234° Southwest 474 545 32,000  Level Atlanta Center
11:08PM 32.9289 -85.1947 232° Southwest 469 540 32,000  Level Atlanta Center
11:09PM 32.8547 -85.3147 234° Southwest 463 533 32,000  Level Atlanta Center
11:10PM 32.7761 -85.4397 233° Southwest 463 533 32,000  Level Atlanta Center
11:11PM 32.7017 -85.5619 234° Southwest 463 533 32,000  Level Atlanta Center
11:12PM 32.6250 -85.6814 233° Southwest 463 533 32,000  Level Atlanta Center
11:13PM 32.5481 -85.8031 233° Southwest 468 539 32,000  Level Atlanta Center
11:14PM 32.4797 -85.9150 234° Southwest 480 552 32,000  Level Atlanta Center
11:15PM 32.4047 -86.0364 234° Southwest 468 539 32,000  Level Atlanta Center
11:16PM 32.3253 -86.1575 232° Southwest 468 539 32,000  Level Atlanta Center
11:17PM 32.2481 -86.2761 232° Southwest 468 539 32,000  Level Atlanta Center
11:18PM 32.1686 -86.4067 234° Southwest 466 536 32,000  Level Atlanta Center
11:19PM 32.0869 -86.5222 230° Southwest 461 531 32,000  Level Atlanta Center
11:20PM 32.0033 -86.6350 229° Southwest 461 531 32,000  Level Atlanta Center
11:21PM 31.9258 -86.7356 228° Southwest 470 541 32,000  Level Atlanta Center
11:22PM 31.8419 -86.8478 229° Southwest 470 541 32,000  Level Atlanta Center
11:24PM 31.6350 -87.1317 229° Southwest 458 527 32,000  Level Houston Center
11:25PM 31.5528 -87.2439 229° Southwest 454 522 32,000  Level Houston Center
11:26PM 31.4700 -87.3575 230° Southwest 458 527 32,000  Level Houston Center
11:27PM 31.3883 -87.4700 230° Southwest 454 522 32,000  Level Houston Center
11:28PM 31.3050 -87.5825 229° Southwest 456 525 32,000  Level Houston Center
11:29PM 31.2389 -87.7089 239° Southwest 461 531 32,000  Level Houston Center
11:30PM 31.1700 -87.8639 243° Southwest 466 536 32,000  Level Houston Center
11:31PM 31.1106 -87.9972 243° Southwest 465 535 32,000  Level Houston Center
11:32PM 31.0514 -88.1314 243° Southwest 466 536 32,000  Level Houston Center
11:33PM 30.9897 -88.2642 242° Southwest 468 539 32,000  Level Houston Center
11:34PM 30.9314 -88.3989 243° Southwest 469 540 32,000  Level Houston Center
11:35PM 30.8711 -88.5314 242° Southwest 465 535 32,000  Level Houston Center
11:36PM 30.8150 -88.6556 242° Southwest 463 533 32,000 -1,140 Level Houston Center
11:37PM 30.7558 -88.7853 242° Southwest 456 525 29,800 -2,520 Descending Houston Center
11:38PM 30.6981 -88.9142 242° Southwest 453 521 27,000 -2,880 Descending Houston Center
11:39PM 30.6389 -89.0478 243° Southwest 442 509 24,000 -2,940 Descending Houston Center
11:40PM 30.5847 -89.1714 243° Southwest 431 496 21,200 -2,700 Descending Houston Center
11:41PM 30.5403 -89.2678 242° Southwest 422 486 19,200 -2,520 Descending Houston Center
11:42PM 30.4878 -89.3792 241° Southwest 401 461 16,900 -2,520 Descending Houston Center
11:43PM 30.4375 -89.4900 242° Southwest 388 447 14,400 -2,400 Descending Houston Center
11:44PM 30.3892 -89.5961 242° Southwest 379 436 12,100 -1,740 Descending Houston Center
11:45PM 30.3406 -89.6994 241° Southwest 363 418 10,900 -900 Descending Houston Center
11:46PM 30.2958 -89.7956 242° Southwest 302 348 10,300 -1,140 Descending Houston Center
11:47PM 30.2567 -89.8767 241° Southwest 277 319 8,700 -1,620 Descending Houston Center
11:48PM 30.2194 -89.9553 241° Southwest 278 320 7,100 -1,680 Descending Houston Center
11:49PM 30.1844 -90.0339 243° Southwest 277 319 5,400 -1,500 Descending Houston Center
11:50PM 30.1472 -90.1100 241° Southwest 271 312 4,100 -1,320 Descending Houston Center